sensor_id;sensor_type;location;lat;lon;timestamp;pressure;altitude;pressure_sealevel;temperature
73734;BMP280;62039;50.000;9.064;2023-02-28T00:01:06;101482.41;;;-1.08
73734;BMP280;62039;50.000;9.064;2023-02-28T00:03:33;101476.53;;;-1.12
73734;BMP280;62039;50.000;9.064;2023-02-28T00:05:59;101477.50;;;-1.14
73734;BMP280;62039;50.000;9.064;2023-02-28T00:08:26;101478.44;;;-1.17
73734;BMP280;62039;50.000;9.064;2023-02-28T00:10:54;101482.78;;;-1.19
73734;BMP280;62039;50.000;9.064;2023-02-28T00:13:20;101479.50;;;-1.22
73734;BMP280;62039;50.000;9.064;2023-02-28T00:15:47;101477.06;;;-1.26
73734;BMP280;62039;50.000;9.064;2023-02-28T00:18:13;101477.94;;;-1.27
73734;BMP280;62039;50.000;9.064;2023-02-28T00:20:40;101481.41;;;-1.28
73734;BMP280;62039;50.000;9.064;2023-02-28T00:23:07;101478.91;;;-1.29
73734;BMP280;62039;50.000;9.064;2023-02-28T00:25:34;101481.50;;;-1.31
73734;BMP280;62039;50.000;9.064;2023-02-28T00:28:02;101480.69;;;-1.31
73734;BMP280;62039;50.000;9.064;2023-02-28T00:30:28;101481.66;;;-1.34
73734;BMP280;62039;50.000;9.064;2023-02-28T00:32:55;101471.50;;;-1.37
73734;BMP280;62039;50.000;9.064;2023-02-28T00:35:22;101475.81;;;-1.39
73734;BMP280;62039;50.000;9.064;2023-02-28T00:37:48;101475.06;;;-1.41
73734;BMP280;62039;50.000;9.064;2023-02-28T00:40:15;101476.84;;;-1.43
73734;BMP280;62039;50.000;9.064;2023-02-28T00:42:42;101483.75;;;-1.45
73734;BMP280;62039;50.000;9.064;2023-02-28T00:45:10;101478.75;;;-1.48
73734;BMP280;62039;50.000;9.064;2023-02-28T00:47:36;101480.50;;;-1.50
73734;BMP280;62039;50.000;9.064;2023-02-28T00:50:04;101489.09;;;-1.51
73734;BMP280;62039;50.000;9.064;2023-02-28T00:52:31;101482.28;;;-1.52
73734;BMP280;62039;50.000;9.064;2023-02-28T00:54:57;101481.44;;;-1.52
73734;BMP280;62039;50.000;9.064;2023-02-28T00:57:24;101485.81;;;-1.54
73734;BMP280;62039;50.000;9.064;2023-02-28T00:59:50;101484.09;;;-1.54
73734;BMP280;62039;50.000;9.064;2023-02-28T01:02:18;101482.41;;;-1.55
73734;BMP280;62039;50.000;9.064;2023-02-28T01:04:45;101477.31;;;-1.56
73734;BMP280;62039;50.000;9.064;2023-02-28T01:07:12;101478.22;;;-1.57
73734;BMP280;62039;50.000;9.064;2023-02-28T01:09:39;101479.94;;;-1.58
73734;BMP280;62039;50.000;9.064;2023-02-28T01:12:07;101482.50;;;-1.58
73734;BMP280;62039;50.000;9.064;2023-02-28T01:14:34;101483.28;;;-1.56
73734;BMP280;62039;50.000;9.064;2023-02-28T01:17:00;101482.41;;;-1.55
73734;BMP280;62039;50.000;9.064;2023-02-28T01:19:28;101483.25;;;-1.54
73734;BMP280;62039;50.000;9.064;2023-02-28T01:21:55;101480.72;;;-1.56
73734;BMP280;62039;50.000;9.064;2023-02-28T01:24:21;101484.19;;;-1.57
73734;BMP280;62039;50.000;9.064;2023-02-28T01:26:48;101479.09;;;-1.58
73734;BMP280;62039;50.000;9.064;2023-02-28T01:29:15;101476.53;;;-1.58
73734;BMP280;62039;50.000;9.064;2023-02-28T01:31:41;101479.97;;;-1.59
73734;BMP280;62039;50.000;9.064;2023-02-28T01:34:08;101469.03;;;-1.63
73734;BMP280;62039;50.000;9.064;2023-02-28T01:36:36;101470.78;;;-1.65
73734;BMP280;62039;50.000;9.064;2023-02-28T01:39:02;101468.34;;;-1.68
73734;BMP280;62039;50.000;9.064;2023-02-28T01:41:31;101471.81;;;-1.69
73734;BMP280;62039;50.000;9.064;2023-02-28T01:44:01;101465.00;;;-1.70
73734;BMP280;62039;50.000;9.064;2023-02-28T01:46:29;101460.75;;;-1.71
73734;BMP280;62039;50.000;9.064;2023-02-28T01:49:02;101468.41;;;-1.70
73734;BMP280;62039;50.000;9.064;2023-02-28T01:51:33;101465.88;;;-1.71
73734;BMP280;62039;50.000;9.064;2023-02-28T01:54:05;101459.06;;;-1.72
73734;BMP280;62039;50.000;9.064;2023-02-28T01:56:35;101459.97;;;-1.73
73734;BMP280;62039;50.000;9.064;2023-02-28T01:59:03;101459.06;;;-1.72
73734;BMP280;62039;50.000;9.064;2023-02-28T02:01:30;101461.69;;;-1.74
73734;BMP280;62039;50.000;9.064;2023-02-28T02:03:59;101454.00;;;-1.74
73734;BMP280;62039;50.000;9.064;2023-02-28T02:06:30;101455.75;;;-1.74
73734;BMP280;62039;50.000;9.064;2023-02-28T02:08:57;101450.72;;;-1.77
73734;BMP280;62039;50.000;9.064;2023-02-28T02:11:25;101444.81;;;-1.79
73734;BMP280;62039;50.000;9.064;2023-02-28T02:14:02;101443.25;;;-1.83
73734;BMP280;62039;50.000;9.064;2023-02-28T02:16:42;101446.03;;;-1.89
73734;BMP280;62039;50.000;9.064;2023-02-28T02:19:37;101442.81;;;-1.94
73734;BMP280;62039;50.000;9.064;2023-02-28T02:22:32;101442.22;;;-2.03
73734;BMP280;62039;50.000;9.064;2023-02-28T02:25:19;101434.75;;;-2.09
73734;BMP280;62039;50.000;9.064;2023-02-28T02:27:59;101439.13;;;-2.12
73734;BMP280;62039;50.000;9.064;2023-02-28T02:30:45;101439.19;;;-2.15
73734;BMP280;62039;50.000;9.064;2023-02-28T02:33:28;101429.84;;;-2.16
73734;BMP280;62039;50.000;9.064;2023-02-28T02:36:04;101443.53;;;-2.17
73734;BMP280;62039;50.000;9.064;2023-02-28T02:38:34;101435.84;;;-2.17
73734;BMP280;62039;50.000;9.064;2023-02-28T02:41:06;101430.69;;;-2.16
73734;BMP280;62039;50.000;9.064;2023-02-28T02:43:36;101436.56;;;-2.14
73734;BMP280;62039;50.000;9.064;2023-02-28T02:46:09;101435.66;;;-2.11
73734;BMP280;62039;50.000;9.064;2023-02-28T02:48:38;101432.28;;;-2.12
73734;BMP280;62039;50.000;9.064;2023-02-28T02:51:12;101433.94;;;-2.11
73734;BMP280;62039;50.000;9.064;2023-02-28T02:53:42;101431.44;;;-2.12
73734;BMP280;62039;50.000;9.064;2023-02-28T02:56:10;101425.47;;;-2.13
73734;BMP280;62039;50.000;9.064;2023-02-28T02:58:40;101430.69;;;-2.16
73734;BMP280;62039;50.000;9.064;2023-02-28T03:01:10;101436.69;;;-2.17
73734;BMP280;62039;50.000;9.064;2023-02-28T03:03:38;101433.28;;;-2.17
73734;BMP280;62039;50.000;9.064;2023-02-28T03:06:05;101433.34;;;-2.19
73734;BMP280;62039;50.000;9.064;2023-02-28T03:08:36;101429.16;;;-2.21
73734;BMP280;62039;50.000;9.064;2023-02-28T03:11:04;101436.09;;;-2.25
73734;BMP280;62039;50.000;9.064;2023-02-28T03:13:42;101434.53;;;-2.29
73734;BMP280;62039;50.000;9.064;2023-02-28T03:16:28;101434.75;;;-2.35
73734;BMP280;62039;50.000;9.064;2023-02-28T03:19:03;101428.91;;;-2.40
73734;BMP280;62039;50.000;9.064;2023-02-28T03:21:37;101429.81;;;-2.41
73734;BMP280;62039;50.000;9.064;2023-02-28T03:24:08;101425.63;;;-2.44
73734;BMP280;62039;50.000;9.064;2023-02-28T03:26:40;101431.63;;;-2.45
73734;BMP280;62039;50.000;9.064;2023-02-28T03:29:14;101431.63;;;-2.45
73734;BMP280;62039;50.000;9.064;2023-02-28T03:31:46;101429.97;;;-2.46
73734;BMP280;62039;50.000;9.064;2023-02-28T03:34:16;101436.78;;;-2.46
73734;BMP280;62039;50.000;9.064;2023-02-28T03:36:48;101426.59;;;-2.48
73734;BMP280;62039;50.000;9.064;2023-02-28T03:39:19;101425.78;;;-2.48
73734;BMP280;62039;50.000;9.064;2023-02-28T03:41:51;101428.41;;;-2.50
73734;BMP280;62039;50.000;9.064;2023-02-28T03:44:22;101436.13;;;-2.51
73734;BMP280;62039;50.000;9.064;2023-02-28T03:46:53;101437.03;;;-2.54
73734;BMP280;62039;50.000;9.064;2023-02-28T03:49:22;101436.31;;;-2.57
73734;BMP280;62039;50.000;9.064;2023-02-28T03:51:50;101431.19;;;-2.57
73734;BMP280;62039;50.000;9.064;2023-02-28T03:54:22;101434.63;;;-2.58
73734;BMP280;62039;50.000;9.064;2023-02-28T03:56:54;101442.34;;;-2.60
73734;BMP280;62039;50.000;9.064;2023-02-28T03:59:27;101429.59;;;-2.61
73734;BMP280;62039;50.000;9.064;2023-02-28T04:01:55;101437.41;;;-2.64
73734;BMP280;62039;50.000;9.064;2023-02-28T04:04:23;101438.28;;;-2.65
73734;BMP280;62039;50.000;9.064;2023-02-28T04:06:50;101440.03;;;-2.67
73734;BMP280;62039;50.000;9.064;2023-02-28T04:09:17;101438.38;;;-2.68
73734;BMP280;62039;50.000;9.064;2023-02-28T04:11:48;101438.44;;;-2.70
73734;BMP280;62039;50.000;9.064;2023-02-28T04:14:16;101446.97;;;-2.71
73734;BMP280;62039;50.000;9.064;2023-02-28T04:16:42;101439.28;;;-2.69
73734;BMP280;62039;50.000;9.064;2023-02-28T04:19:11;101438.47;;;-2.71
73734;BMP280;62039;50.000;9.064;2023-02-28T04:21:40;101435.03;;;-2.70
73734;BMP280;62039;50.000;9.064;2023-02-28T04:24:08;101439.31;;;-2.71
73734;BMP280;62039;50.000;9.064;2023-02-28T04:26:36;101441.06;;;-2.73
73734;BMP280;62039;50.000;9.064;2023-02-28T04:29:05;101446.19;;;-2.73
73734;BMP280;62039;50.000;9.064;2023-02-28T04:31:32;101445.34;;;-2.73
73734;BMP280;62039;50.000;9.064;2023-02-28T04:33:59;101447.03;;;-2.72
73734;BMP280;62039;50.000;9.064;2023-02-28T04:36:26;101438.47;;;-2.71
73734;BMP280;62039;50.000;9.064;2023-02-28T04:38:53;101446.09;;;-2.70
73734;BMP280;62039;50.000;9.064;2023-02-28T04:41:20;101442.66;;;-2.69
73734;BMP280;62039;50.000;9.064;2023-02-28T04:43:47;101440.94;;;-2.68
73734;BMP280;62039;50.000;9.064;2023-02-28T04:46:15;101445.22;;;-2.69
73734;BMP280;62039;50.000;9.064;2023-02-28T04:48:41;101440.16;;;-2.70
73734;BMP280;62039;50.000;9.064;2023-02-28T04:51:09;101443.63;;;-2.73
73734;BMP280;62039;50.000;9.064;2023-02-28T04:53:37;101446.22;;;-2.74
73734;BMP280;62039;50.000;9.064;2023-02-28T04:56:04;101448.84;;;-2.76
73734;BMP280;62039;50.000;9.064;2023-02-28T04:58:31;101442.03;;;-2.75
73734;BMP280;62039;50.000;9.064;2023-02-28T05:01:01;101452.28;;;-2.77
73734;BMP280;62039;50.000;9.064;2023-02-28T05:03:29;101442.09;;;-2.78
73734;BMP280;62039;50.000;9.064;2023-02-28T05:05:56;101429.34;;;-2.80
73734;BMP280;62039;50.000;9.064;2023-02-28T05:08:22;101441.38;;;-2.82
73734;BMP280;62039;50.000;9.064;2023-02-28T05:10:49;101449.94;;;-2.83
73734;BMP280;62039;50.000;9.064;2023-02-28T05:13:15;101450.81;;;-2.84
73734;BMP280;62039;50.000;9.064;2023-02-28T05:15:42;101451.69;;;-2.85
73734;BMP280;62039;50.000;9.064;2023-02-28T05:18:08;101454.28;;;-2.87
73734;BMP280;62039;50.000;9.064;2023-02-28T05:20:36;101455.16;;;-2.88
73734;BMP280;62039;50.000;9.064;2023-02-28T05:23:03;101449.28;;;-2.90
73734;BMP280;62039;50.000;9.064;2023-02-28T05:25:29;101454.41;;;-2.90
73734;BMP280;62039;50.000;9.064;2023-02-28T05:27:56;101458.66;;;-2.90
73734;BMP280;62039;50.000;9.064;2023-02-28T05:30:23;101454.41;;;-2.90
73734;BMP280;62039;50.000;9.064;2023-02-28T05:32:50;101456.06;;;-2.89
73734;BMP280;62039;50.000;9.064;2023-02-28T05:35:17;101460.34;;;-2.89
73734;BMP280;62039;50.000;9.064;2023-02-28T05:37:45;101454.31;;;-2.88
73734;BMP280;62039;50.000;9.064;2023-02-28T05:40:12;101460.34;;;-2.89
73734;BMP280;62039;50.000;9.064;2023-02-28T05:42:38;101461.19;;;-2.89
73734;BMP280;62039;50.000;9.064;2023-02-28T05:45:06;101458.63;;;-2.89
73734;BMP280;62039;50.000;9.064;2023-02-28T05:47:33;101473.91;;;-2.87
73734;BMP280;62039;50.000;9.064;2023-02-28T05:50:00;101477.31;;;-2.87
73734;BMP280;62039;50.000;9.064;2023-02-28T05:52:26;101476.44;;;-2.86
73734;BMP280;62039;50.000;9.064;2023-02-28T05:54:54;101476.44;;;-2.86
73734;BMP280;62039;50.000;9.064;2023-02-28T05:57:21;101473.00;;;-2.85
73734;BMP280;62039;50.000;9.064;2023-02-28T05:59:50;101471.22;;;-2.83
73734;BMP280;62039;50.000;9.064;2023-02-28T06:02:17;101478.03;;;-2.82
73734;BMP280;62039;50.000;9.064;2023-02-28T06:04:44;101476.22;;;-2.79
73734;BMP280;62039;50.000;9.064;2023-02-28T06:07:11;101475.34;;;-2.78
73734;BMP280;62039;50.000;9.064;2023-02-28T06:09:37;101481.28;;;-2.76
73734;BMP280;62039;50.000;9.064;2023-02-28T06:12:06;101480.41;;;-2.75
73734;BMP280;62039;50.000;9.064;2023-02-28T06:14:33;101487.16;;;-2.74
73734;BMP280;62039;50.000;9.064;2023-02-28T06:17:00;101482.84;;;-2.72
73734;BMP280;62039;50.000;9.064;2023-02-28T06:19:27;101482.75;;;-2.69
73734;BMP280;62039;50.000;9.064;2023-02-28T06:21:54;101495.47;;;-2.68
73734;BMP280;62039;50.000;9.064;2023-02-28T06:24:22;101493.78;;;-2.67
73734;BMP280;62039;50.000;9.064;2023-02-28T06:26:49;101486.09;;;-2.67
73734;BMP280;62039;50.000;9.064;2023-02-28T06:29:16;101498.00;;;-2.66
73734;BMP280;62039;50.000;9.064;2023-02-28T06:31:43;101498.84;;;-2.66
73734;BMP280;62039;50.000;9.064;2023-02-28T06:34:10;101502.25;;;-2.65
73734;BMP280;62039;50.000;9.064;2023-02-28T06:36:37;101501.38;;;-2.64
73734;BMP280;62039;50.000;9.064;2023-02-28T06:39:04;101509.84;;;-2.62
73734;BMP280;62039;50.000;9.064;2023-02-28T06:41:31;101509.72;;;-2.59
73734;BMP280;62039;50.000;9.064;2023-02-28T06:44:18;101509.66;;;-2.56
73734;BMP280;62039;50.000;9.064;2023-02-28T06:46:45;101512.09;;;-2.53
73734;BMP280;62039;50.000;9.064;2023-02-28T06:49:12;101513.69;;;-2.49
73734;BMP280;62039;50.000;9.064;2023-02-28T06:51:40;101506.75;;;-2.46
73734;BMP280;62039;50.000;9.064;2023-02-28T06:54:07;101515.09;;;-2.41
73734;BMP280;62039;50.000;9.064;2023-02-28T06:56:34;101515.00;;;-2.36
73734;BMP280;62039;50.000;9.064;2023-02-28T06:59:00;101517.44;;;-2.33
73734;BMP280;62039;50.000;9.064;2023-02-28T07:01:28;101520.72;;;-2.28
73734;BMP280;62039;50.000;9.064;2023-02-28T07:03:55;101523.13;;;-2.23
73734;BMP280;62039;50.000;9.064;2023-02-28T07:06:22;101517.88;;;-2.20
73734;BMP280;62039;50.000;9.064;2023-02-28T07:08:50;101518.50;;;-2.14
73734;BMP280;62039;50.000;9.064;2023-02-28T07:11:16;101523.50;;;-2.08
73734;BMP280;62039;50.000;9.064;2023-02-28T07:13:43;101522.47;;;-2.02
73734;BMP280;62039;50.000;9.064;2023-02-28T07:16:11;101520.53;;;-1.95
73734;BMP280;62039;50.000;9.064;2023-02-28T07:18:39;101518.59;;;-1.89
73734;BMP280;62039;50.000;9.064;2023-02-28T07:21:07;101517.56;;;-1.83
73734;BMP280;62039;50.000;9.064;2023-02-28T07:23:35;101520.69;;;-1.75
73734;BMP280;62039;50.000;9.064;2023-02-28T07:26:01;101518.75;;;-1.69
73734;BMP280;62039;50.000;9.064;2023-02-28T07:28:28;101514.25;;;-1.62
73734;BMP280;62039;50.000;9.064;2023-02-28T07:30:54;101517.41;;;-1.54
73734;BMP280;62039;50.000;9.064;2023-02-28T07:33:21;101519.63;;;-1.45
73734;BMP280;62039;50.000;9.064;2023-02-28T07:35:49;101531.25;;;-1.35
73734;BMP280;62039;50.000;9.064;2023-02-28T07:38:15;101516.41;;;-1.27
73734;BMP280;62039;50.000;9.064;2023-02-28T07:40:42;101517.81;;;-1.18
73734;BMP280;62039;50.000;9.064;2023-02-28T07:43:08;101524.28;;;-1.08
73734;BMP280;62039;50.000;9.064;2023-02-28T07:45:35;101517.16;;;-1.00
73734;BMP280;62039;50.000;9.064;2023-02-28T07:48:02;101517.63;;;-0.90
73734;BMP280;62039;50.000;9.064;2023-02-28T07:50:28;101519.78;;;-0.79
73734;BMP280;62039;50.000;9.064;2023-02-28T07:52:57;101519.44;;;-0.70
73734;BMP280;62039;50.000;9.064;2023-02-28T07:55:23;101522.50;;;-0.61
73734;BMP280;62039;50.000;9.064;2023-02-28T07:57:50;101521.28;;;-0.52
73734;BMP280;62039;50.000;9.064;2023-02-28T08:00:17;101525.19;;;-0.42
73734;BMP280;62039;50.000;9.064;2023-02-28T08:02:44;101523.84;;;-0.30
73734;BMP280;62039;50.000;9.064;2023-02-28T08:05:10;101518.22;;;-0.18
73734;BMP280;62039;50.000;9.064;2023-02-28T08:07:37;101527.09;;;-0.05
73734;BMP280;62039;50.000;9.064;2023-02-28T08:10:06;101526.63;;;0.07
73734;BMP280;62039;50.000;9.064;2023-02-28T08:12:33;101523.66;;;0.16
73734;BMP280;62039;50.000;9.064;2023-02-28T08:14:59;101522.38;;;0.26
73734;BMP280;62039;50.000;9.064;2023-02-28T08:17:26;101529.59;;;0.39
73734;BMP280;62039;50.000;9.064;2023-02-28T08:19:52;101529.22;;;0.48
73734;BMP280;62039;50.000;9.064;2023-02-28T08:22:19;101527.00;;;0.59
73734;BMP280;62039;50.000;9.064;2023-02-28T08:24:46;101531.63;;;0.71
73734;BMP280;62039;50.000;9.064;2023-02-28T08:27:13;101529.28;;;0.85
73734;BMP280;62039;50.000;9.064;2023-02-28T08:29:40;101527.03;;;0.96
73734;BMP280;62039;50.000;9.064;2023-02-28T08:32:07;101525.72;;;1.06
73734;BMP280;62039;50.000;9.064;2023-02-28T08:34:49;101516.84;;;1.13
73734;BMP280;62039;50.000;9.064;2023-02-28T08:37:15;101515.66;;;1.21
73734;BMP280;62039;50.000;9.064;2023-02-28T08:39:42;101522.19;;;1.28
73734;BMP280;62039;50.000;9.064;2023-02-28T08:42:08;101517.50;;;1.36
73734;BMP280;62039;50.000;9.064;2023-02-28T08:44:36;101511.25;;;1.41
73734;BMP280;62039;50.000;9.064;2023-02-28T08:47:03;101518.50;;;1.50
73734;BMP280;62039;50.000;9.064;2023-02-28T08:49:30;101514.66;;;1.59
73734;BMP280;62039;50.000;9.064;2023-02-28T08:51:56;101512.63;;;1.66
73734;BMP280;62039;50.000;9.064;2023-02-28T08:54:23;101514.84;;;1.73
73734;BMP280;62039;50.000;9.064;2023-02-28T08:56:49;101521.38;;;1.80
73734;BMP280;62039;50.000;9.064;2023-02-28T08:59:16;101515.00;;;1.87
73734;BMP280;62039;50.000;9.064;2023-02-28T09:01:44;101518.19;;;1.92
73734;BMP280;62039;50.000;9.064;2023-02-28T09:04:11;101513.63;;;1.98
73734;BMP280;62039;50.000;9.064;2023-02-28T09:06:41;101510.59;;;2.07
73734;BMP280;62039;50.000;9.064;2023-02-28T09:09:07;101509.31;;;2.15
73734;BMP280;62039;50.000;9.064;2023-02-28T09:11:34;101506.41;;;2.23
73734;BMP280;62039;50.000;9.064;2023-02-28T09:14:01;101501.66;;;2.31
73734;BMP280;62039;50.000;9.064;2023-02-28T09:16:28;101501.28;;;2.39
73734;BMP280;62039;50.000;9.064;2023-02-28T09:18:56;101507.84;;;2.44
73734;BMP280;62039;50.000;9.064;2023-02-28T09:21:22;101501.56;;;2.50
73734;BMP280;62039;50.000;9.064;2023-02-28T09:23:50;101496.94;;;2.56
73734;BMP280;62039;50.000;9.064;2023-02-28T09:26:18;101499.91;;;2.64
73734;BMP280;62039;50.000;9.064;2023-02-28T09:28:47;101498.69;;;2.71
73734;BMP280;62039;50.000;9.064;2023-02-28T09:31:16;101498.13;;;2.82
73734;BMP280;62039;50.000;9.064;2023-02-28T09:33:43;101501.88;;;2.92
73734;BMP280;62039;50.000;9.064;2023-02-28T09:36:11;101502.22;;;3.02
73734;BMP280;62039;50.000;9.064;2023-02-28T09:38:38;101495.72;;;3.10
73734;BMP280;62039;50.000;9.064;2023-02-28T09:41:11;101492.63;;;3.20
73734;BMP280;62039;50.000;9.064;2023-02-28T09:43:43;101495.56;;;3.29
73734;BMP280;62039;50.000;9.064;2023-02-28T09:46:18;101501.13;;;3.37
73734;BMP280;62039;50.000;9.064;2023-02-28T09:48:48;101491.94;;;3.47
73734;BMP280;62039;50.000;9.064;2023-02-28T09:51:30;101489.56;;;3.59
73734;BMP280;62039;50.000;9.064;2023-02-28T09:53:59;101485.56;;;3.69
73734;BMP280;62039;50.000;9.064;2023-02-28T09:56:31;101491.72;;;3.82
73734;BMP280;62039;50.000;9.064;2023-02-28T09:59:01;101499.88;;;3.90
73734;BMP280;62039;50.000;9.064;2023-02-28T10:01:34;101490.84;;;3.97
73734;BMP280;62039;50.000;9.064;2023-02-28T10:04:07;101512.84;;;4.04
73734;BMP280;62039;50.000;9.064;2023-02-28T10:06:40;101498.63;;;4.11
73734;BMP280;62039;50.000;9.064;2023-02-28T10:09:11;101491.22;;;4.19
73734;BMP280;62039;50.000;9.064;2023-02-28T10:11:39;101494.50;;;4.23
73734;BMP280;62039;50.000;9.064;2023-02-28T10:14:11;101495.13;;;4.26
73734;BMP280;62039;50.000;9.064;2023-02-28T10:16:41;101489.69;;;4.31
73734;BMP280;62039;50.000;9.064;2023-02-28T10:19:13;101503.34;;;4.33
73734;BMP280;62039;50.000;9.064;2023-02-28T10:21:46;101492.91;;;4.35
73734;BMP280;62039;50.000;9.064;2023-02-28T10:24:20;101483.13;;;4.40
73734;BMP280;62039;50.000;9.064;2023-02-28T10:26:52;101496.44;;;4.48
73734;BMP280;62039;50.000;9.064;2023-02-28T10:29:20;101487.38;;;4.55
73734;BMP280;62039;50.000;9.064;2023-02-28T10:31:46;101492.84;;;4.64
73734;BMP280;62039;50.000;9.064;2023-02-28T10:34:13;101492.25;;;4.74
73734;BMP280;62039;50.000;9.064;2023-02-28T10:36:40;101490.03;;;4.82
73734;BMP280;62039;50.000;9.064;2023-02-28T10:42:19;101485.38;;;5.01
73734;BMP280;62039;50.000;9.064;2023-02-28T10:44:47;101476.13;;;5.11
73734;BMP280;62039;50.000;9.064;2023-02-28T10:47:15;101484.28;;;5.19
73734;BMP280;62039;50.000;9.064;2023-02-28T10:49:47;101481.00;;;5.30
73734;BMP280;62039;50.000;9.064;2023-02-28T10:52:14;101483.09;;;5.37
73734;BMP280;62039;50.000;9.064;2023-02-28T10:55:14;101483.53;;;5.44
73734;BMP280;62039;50.000;9.064;2023-02-28T10:57:42;101487.38;;;5.51
73734;BMP280;62039;50.000;9.064;2023-02-28T11:00:14;101472.56;;;5.53
73734;BMP280;62039;50.000;9.064;2023-02-28T11:02:41;101478.47;;;5.55
73734;BMP280;62039;50.000;9.064;2023-02-28T11:05:29;101481.06;;;5.55
73734;BMP280;62039;50.000;9.064;2023-02-28T11:08:04;101486.06;;;5.58
73734;BMP280;62039;50.000;9.064;2023-02-28T11:10:32;101485.00;;;5.61
73734;BMP280;62039;50.000;9.064;2023-02-28T11:13:01;101478.91;;;5.62
73734;BMP280;62039;50.000;9.064;2023-02-28T11:15:30;101486.69;;;5.62
73734;BMP280;62039;50.000;9.064;2023-02-28T11:17:59;101476.44;;;5.60
73734;BMP280;62039;50.000;9.064;2023-02-28T11:20:28;101478.06;;;5.61
73734;BMP280;62039;50.000;9.064;2023-02-28T11:22:57;101485.84;;;5.61
73734;BMP280;62039;50.000;9.064;2023-02-28T11:25:25;101474.56;;;5.62
73734;BMP280;62039;50.000;9.064;2023-02-28T11:27:54;101467.69;;;5.61
73734;BMP280;62039;50.000;9.064;2023-02-28T11:30:39;101479.72;;;5.62
73734;BMP280;62039;50.000;9.064;2023-02-28T11:33:21;101467.59;;;5.63
73734;BMP280;62039;50.000;9.064;2023-02-28T11:35:49;101464.00;;;5.65
73734;BMP280;62039;50.000;9.064;2023-02-28T11:38:16;101463.69;;;5.70
73734;BMP280;62039;50.000;9.064;2023-02-28T11:40:46;101460.59;;;5.77
73734;BMP280;62039;50.000;9.064;2023-02-28T11:43:27;101460.19;;;5.83
73734;BMP280;62039;50.000;9.064;2023-02-28T11:46:14;101462.44;;;5.88
73734;BMP280;62039;50.000;9.064;2023-02-28T11:48:50;101453.47;;;5.94
73734;BMP280;62039;50.000;9.064;2023-02-28T11:51:23;101454.59;;;6.02
73734;BMP280;62039;50.000;9.064;2023-02-28T11:54:16;101455.75;;;6.11
73734;BMP280;62039;50.000;9.064;2023-02-28T11:56:51;101449.00;;;6.21
73734;BMP280;62039;50.000;9.064;2023-02-28T11:59:35;101438.47;;;6.35
73734;BMP280;62039;50.000;9.064;2023-02-28T12:02:23;101430.50;;;6.51
73734;BMP280;62039;50.000;9.064;2023-02-28T12:05:17;101438.75;;;6.68
73734;BMP280;62039;50.000;9.064;2023-02-28T12:07:55;101442.69;;;6.87
73734;BMP280;62039;50.000;9.064;2023-02-28T12:10:26;101443.13;;;7.04
73734;BMP280;62039;50.000;9.064;2023-02-28T12:13:05;101434.22;;;7.20
73734;BMP280;62039;50.000;9.064;2023-02-28T12:16:13;101439.16;;;7.35
73734;BMP280;62039;50.000;9.064;2023-02-28T12:18:56;101435.41;;;7.51
73734;BMP280;62039;50.000;9.064;2023-02-28T12:21:32;101446.81;;;7.61
73734;BMP280;62039;50.000;9.064;2023-02-28T12:24:14;101446.56;;;7.64
73734;BMP280;62039;50.000;9.064;2023-02-28T12:26:44;101431.69;;;7.66
73734;BMP280;62039;50.000;9.064;2023-02-28T12:29:15;101441.88;;;7.69
73734;BMP280;62039;50.000;9.064;2023-02-28T12:31:47;101426.84;;;7.72
73734;BMP280;62039;50.000;9.064;2023-02-28T12:34:20;101429.84;;;7.79
73734;BMP280;62039;50.000;9.064;2023-02-28T12:36:48;101429.63;;;7.82
73734;BMP280;62039;50.000;9.064;2023-02-28T12:39:22;101430.31;;;7.84
73734;BMP280;62039;50.000;9.064;2023-02-28T12:41:53;101419.78;;;7.85
73734;BMP280;62039;50.000;9.064;2023-02-28T12:44:25;101424.88;;;7.87
73734;BMP280;62039;50.000;9.064;2023-02-28T12:46:55;101419.31;;;7.92
73734;BMP280;62039;50.000;9.064;2023-02-28T12:49:27;101417.34;;;7.95
73734;BMP280;62039;50.000;9.064;2023-02-28T12:51:55;101410.72;;;8.02
73734;BMP280;62039;50.000;9.064;2023-02-28T12:54:25;101414.25;;;8.12
73734;BMP280;62039;50.000;9.064;2023-02-28T12:56:58;101408.34;;;8.21
73734;BMP280;62039;50.000;9.064;2023-02-28T12:59:31;101397.81;;;8.34
73734;BMP280;62039;50.000;9.064;2023-02-28T13:02:09;101388.91;;;8.48
73734;BMP280;62039;50.000;9.064;2023-02-28T13:05:01;101399.22;;;8.60
73734;BMP280;62039;50.000;9.064;2023-02-28T13:07:54;101393.88;;;8.73
73734;BMP280;62039;50.000;9.064;2023-02-28T13:10:23;101396.44;;;8.84
73734;BMP280;62039;50.000;9.064;2023-02-28T13:12:51;101395.31;;;8.98
73734;BMP280;62039;50.000;9.064;2023-02-28T13:15:20;101387.31;;;9.11
73734;BMP280;62039;50.000;9.064;2023-02-28T13:17:49;101394.28;;;9.21
73734;BMP280;62039;50.000;9.064;2023-02-28T13:20:20;101391.91;;;9.29
73734;BMP280;62039;50.000;9.064;2023-02-28T13:22:50;101387.13;;;9.34
73734;BMP280;62039;50.000;9.064;2023-02-28T13:25:50;101380.25;;;9.33
73734;BMP280;62039;50.000;9.064;2023-02-28T13:31:27;101380.25;;;9.33
73734;BMP280;62039;50.000;9.064;2023-02-28T13:34:15;101391.63;;;9.32
73734;BMP280;62039;50.000;9.064;2023-02-28T13:36:43;101378.72;;;9.31
73734;BMP280;62039;50.000;9.064;2023-02-28T13:39:48;101383.59;;;9.24
73734;BMP280;62039;50.000;9.064;2023-02-28T13:42:33;101392.63;;;9.20
73734;BMP280;62039;50.000;9.064;2023-02-28T13:45:20;101381.66;;;9.17
73734;BMP280;62039;50.000;9.064;2023-02-28T13:47:52;101373.34;;;9.12
73734;BMP280;62039;50.000;9.064;2023-02-28T13:50:37;101386.06;;;9.05
73734;BMP280;62039;50.000;9.064;2023-02-28T13:53:26;101379.84;;;8.96
73734;BMP280;62039;50.000;9.064;2023-02-28T13:56:03;101382.22;;;8.88
73734;BMP280;62039;50.000;9.064;2023-02-28T13:58:41;101374.91;;;8.82
73734;BMP280;62039;50.000;9.064;2023-02-28T14:01:21;101378.94;;;8.75
73734;BMP280;62039;50.000;9.064;2023-02-28T14:04:02;101380.38;;;8.68
73734;BMP280;62039;50.000;9.064;2023-02-28T14:06:34;101371.84;;;8.66
73734;BMP280;62039;50.000;9.064;2023-02-28T14:09:06;101367.47;;;8.67
73734;BMP280;62039;50.000;9.064;2023-02-28T14:11:43;101371.38;;;8.72
73734;BMP280;62039;50.000;9.064;2023-02-28T14:17:17;101358.88;;;8.87
73734;BMP280;62039;50.000;9.064;2023-02-28T14:19:45;101349.50;;;8.95
73734;BMP280;62039;50.000;9.064;2023-02-28T14:22:22;101356.56;;;9.04
73734;BMP280;62039;50.000;9.064;2023-02-28T14:25:08;101353.59;;;9.09
73734;BMP280;62039;50.000;9.064;2023-02-28T14:27:44;101357.25;;;9.07
73734;BMP280;62039;50.000;9.064;2023-02-28T14:30:40;101353.25;;;9.02